Time;durP1;ratioP1;P1;durP2;ratioP2;P2;SDS_P1;SDS_P2;PMS_P1;PMS_P2;Temp;Humidity;BMP_temperature;BMP_pressure;BME280_temperature;BME280_humidity;BME280_pressure;Samples;Min_cycle;Max_cycle;Signal;HPM_P1;HPM_P2
2024/02/11 00:01:27;;;;;;;28.98;16.33;;;;;;;11.48;100.00;98576.94;5280440;28;20022;-75
2024/02/11 00:03:58;;;;;;;32.33;16.73;;;;;;;11.45;100.00;98579.28;5282416;28;20556;-75
2024/02/11 00:06:28;;;;;;;37.90;19.25;;;;;;;11.46;100.00;98584.44;5285139;27;20549;-75
2024/02/11 00:08:59;;;;;;;41.55;21.02;;;;;;;11.47;100.00;98586.06;5282292;28;20046;-75
2024/02/11 00:11:29;;;;;;;43.33;20.92;;;;;;;11.47;100.00;98583.38;5282399;27;20101;-75
2024/02/11 00:14:00;;;;;;;46.20;23.52;;;;;;;11.49;100.00;98573.22;5283732;28;20024;-75
2024/02/11 00:16:30;;;;;;;44.97;21.15;;;;;;;11.57;100.00;98577.47;5282344;28;20028;-75
2024/02/11 00:19:01;;;;;;;42.67;21.65;;;;;;;11.54;100.00;98578.72;5282538;28;20034;-75
2024/02/11 00:21:31;;;;;;;39.35;21.17;;;;;;;11.50;100.00;98584.81;5281202;28;20346;-75
2024/02/11 00:24:02;;;;;;;42.55;20.05;;;;;;;11.48;100.00;98579.63;5284866;27;20027;-75
2024/02/11 00:26:33;;;;;;;46.80;21.63;;;;;;;11.50;100.00;98579.44;5283811;28;20053;-75
2024/02/11 00:29:04;;;;;;;52.88;23.05;;;;;;;11.57;100.00;98578.28;5280667;27;20027;-75
2024/02/11 00:31:35;;;;;;;54.35;23.73;;;;;;;11.55;100.00;98575.00;5279369;27;20425;-75
2024/02/11 00:34:05;;;;;;;47.83;21.85;;;;;;;11.55;100.00;98572.31;5282035;28;20016;-75
2024/02/11 00:36:36;;;;;;;51.45;22.98;;;;;;;11.54;100.00;98567.97;5279192;27;20027;-75
2024/02/11 00:39:07;;;;;;;54.42;22.73;;;;;;;11.54;100.00;98567.16;5285058;27;20088;-75
2024/02/11 00:41:40;;;;;;;45.70;21.30;;;;;;;11.54;100.00;98576.03;5282818;28;20027;-75
2024/02/11 00:44:10;;;;;;;54.33;23.80;;;;;;;11.55;100.00;98575.00;5282091;27;20024;-75
2024/02/11 00:46:41;;;;;;;42.33;21.17;;;;;;;11.56;100.00;98573.16;5279735;28;20050;-75
2024/02/11 00:49:11;;;;;;;45.30;20.50;;;;;;;11.53;100.00;98571.72;5283772;28;20031;-75
2024/02/11 00:51:42;;;;;;;47.85;20.38;;;;;;;11.56;100.00;98567.78;5285502;27;20122;-75
2024/02/11 00:54:13;;;;;;;40.72;19.80;;;;;;;11.54;100.00;98559.09;5280254;28;20384;-75
2024/02/11 00:56:43;;;;;;;44.33;18.63;;;;;;;11.54;100.00;98567.97;5281935;27;20035;-75
2024/02/11 00:59:14;;;;;;;48.88;20.00;;;;;;;11.58;100.00;98573.72;5282611;28;20019;-75
2024/02/11 01:01:45;;;;;;;44.30;19.70;;;;;;;11.59;100.00;98572.66;5281490;27;20081;-75
2024/02/11 01:04:15;;;;;;;49.15;18.95;;;;;;;11.57;100.00;98572.91;5276318;28;20012;-75
2024/02/11 01:06:46;;;;;;;43.38;19.25;;;;;;;11.58;100.00;98568.34;5276765;28;20542;-75
2024/02/11 01:09:16;;;;;;;46.95;18.88;;;;;;;11.55;100.00;98572.31;5285675;28;20027;-75
2024/02/11 01:11:50;;;;;;;40.78;18.73;;;;;;;11.53;100.00;98573.59;5284085;28;20024;-75
2024/02/11 01:14:21;;;;;;;41.83;17.35;;;;;;;11.52;100.00;98577.31;5288163;28;20015;-75
2024/02/11 01:16:53;;;;;;;41.30;18.85;;;;;;;11.46;100.00;98572.88;5279717;27;20550;-75
2024/02/11 01:19:23;;;;;;;40.95;19.02;;;;;;;11.44;100.00;98575.75;5289648;28;20106;-75
2024/02/11 01:21:54;;;;;;;46.13;19.98;;;;;;;11.45;100.00;98572.06;5279951;28;20046;-75
2024/02/11 01:24:24;;;;;;;45.92;19.88;;;;;;;11.45;100.00;98565.88;5286569;27;20047;-75
2024/02/11 01:26:56;;;;;;;49.55;18.92;;;;;;;11.46;100.00;98565.63;5283966;27;20024;-75
2024/02/11 01:29:27;;;;;;;46.75;19.30;;;;;;;11.45;100.00;98571.25;5284632;27;20042;-75
2024/02/11 01:31:58;;;;;;;46.97;19.65;;;;;;;11.47;100.00;98571.81;5294441;27;20102;-75
2024/02/11 01:34:30;;;;;;;50.35;19.63;;;;;;;11.47;100.00;98574.50;5290159;27;20370;-75
2024/02/11 01:37:00;;;;;;;49.28;19.90;;;;;;;11.51;100.00;98587.25;5290381;27;20454;-75
2024/02/11 01:39:31;;;;;;;45.92;18.98;;;;;;;11.50;100.00;98574.88;5287784;27;20018;-75
2024/02/11 01:42:02;;;;;;;48.90;19.38;;;;;;;11.47;100.00;98574.50;5286451;27;20028;-75
2024/02/11 01:44:32;;;;;;;47.65;19.25;;;;;;;11.48;100.00;98571.59;5279356;28;20034;-75
2024/02/11 01:47:04;;;;;;;39.92;17.23;;;;;;;11.49;100.00;98569.72;5283998;27;20016;-75
2024/02/11 01:49:36;;;;;;;45.55;18.02;;;;;;;11.49;100.00;98573.22;5287552;27;20027;-75
2024/02/11 01:52:06;;;;;;;42.17;17.92;;;;;;;11.51;100.00;98581.06;5285906;27;20111;-75
2024/02/11 01:54:37;;;;;;;43.83;17.17;;;;;;;11.50;100.00;98574.06;5289647;27;20440;-75
2024/02/11 01:57:08;;;;;;;59.85;19.50;;;;;;;11.46;100.00;98579.06;5287307;27;20052;-75
2024/02/11 01:59:39;;;;;;;34.47;13.82;;;;;;;11.45;100.00;98577.44;5288188;27;20054;-75
2024/02/11 02:02:13;;;;;;;35.45;14.35;;;;;;;11.47;100.00;98569.94;5286686;27;20082;-75
2024/02/11 02:04:45;;;;;;;33.53;14.27;;;;;;;11.51;100.00;98573.00;5286301;28;20091;-75
2024/02/11 02:07:16;;;;;;;32.65;14.60;;;;;;;11.50;100.00;98571.38;5281915;27;20028;-75
2024/02/11 02:09:48;;;;;;;29.75;13.55;;;;;;;11.50;100.00;98577.56;5289392;27;20024;-75
2024/02/11 02:12:30;;;;;;;39.28;15.27;;;;;;;11.47;100.00;98577.19;5284642;27;20051;-75
2024/02/11 02:15:16;;;;;;;;;;;;;;;11.47;100.00;98579.88;5285870;27;20023;-75
2024/02/11 02:17:47;;;;;;;32.42;13.35;;;;;;;11.44;100.00;98583.81;5288151;27;20310;-75
2024/02/11 02:20:29;;;;;;;32.65;13.38;;;;;;;11.44;100.00;98577.63;5286187;27;20497;-75
2024/02/11 02:23:00;;;;;;;33.00;12.88;;;;;;;11.38;100.00;98585.53;5285361;27;20092;-75
2024/02/11 02:25:32;;;;;;;30.27;13.25;;;;;;;11.37;100.00;98586.59;5288255;27;20064;-74
2024/02/11 02:28:12;;;;;;;29.42;12.65;;;;;;;11.35;100.00;98587.88;5283883;27;20407;-75
2024/02/11 02:30:43;;;;;;;28.38;12.30;;;;;;;11.24;100.00;98597.50;5289601;27;20020;-75
2024/02/11 02:33:16;;;;;;;26.17;12.23;;;;;;;11.19;100.00;98612.63;5281814;27;20039;-75
2024/02/11 02:35:54;;;;;;;27.75;11.40;;;;;;;11.11;100.00;98613.75;5282563;28;20032;-75
2024/02/11 02:38:24;;;;;;;22.42;10.52;;;;;;;11.00;100.00;98611.84;5283869;27;20679;-74
2024/02/11 02:40:55;;;;;;;23.25;10.52;;;;;;;10.84;100.00;98611.38;5284262;27;20016;-75
2024/02/11 02:43:26;;;;;;;20.58;9.48;;;;;;;10.78;100.00;98608.75;5286677;27;20487;-75
2024/02/11 02:45:56;;;;;;;21.38;9.60;;;;;;;10.77;100.00;98625.88;5283801;27;20024;-75
2024/02/11 02:48:28;;;;;;;21.40;9.50;;;;;;;10.72;100.00;98623.03;5289671;27;20028;-74
2024/02/11 02:51:00;;;;;;;23.23;9.45;;;;;;;10.71;100.00;98630.28;5281089;28;20026;-74
2024/02/11 02:53:31;;;;;;;27.60;10.38;;;;;;;10.59;100.00;98632.88;5284348;27;20104;-74
2024/02/11 02:56:01;;;;;;;22.92;10.13;;;;;;;10.60;100.00;98631.00;5286819;27;20548;-74
2024/02/11 02:58:32;;;;;;;21.38;9.45;;;;;;;10.63;100.00;98634.03;5285316;27;20036;-74
2024/02/11 03:01:04;;;;;;;27.95;10.63;;;;;;;10.66;100.00;98638.16;5284378;27;20503;-74
2024/02/11 03:03:34;;;;;;;21.60;10.30;;;;;;;10.66;100.00;98635.47;5287695;27;20019;-75
2024/02/11 03:06:05;;;;;;;29.83;11.05;;;;;;;10.59;100.00;98637.38;5286303;27;20104;-75
2024/02/11 03:08:36;;;;;;;25.45;11.32;;;;;;;10.51;100.00;98635.81;5287211;27;20686;-74
2024/02/11 03:11:06;;;;;;;24.60;10.85;;;;;;;10.50;100.00;98641.41;5282578;28;20028;-74
2024/02/11 03:13:37;;;;;;;23.48;10.55;;;;;;;10.40;100.00;98647.25;5286475;27;20011;-74
2024/02/11 03:16:08;;;;;;;19.77;9.35;;;;;;;10.41;100.00;98646.22;5287710;27;20073;-75
2024/02/11 03:18:40;;;;;;;19.58;9.63;;;;;;;10.43;100.00;98657.53;5287692;27;20031;-74
2024/02/11 03:21:15;;;;;;;19.15;9.02;;;;;;;10.45;100.00;98662.69;5280957;27;20028;-74
2024/02/11 03:23:45;;;;;;;17.87;8.67;;;;;;;10.22;100.00;98658.69;5282406;27;20047;-74
2024/02/11 03:26:17;;;;;;;20.13;9.38;;;;;;;10.36;100.00;98659.44;5283677;27;20027;-74
2024/02/11 03:28:49;;;;;;;18.65;8.15;;;;;;;10.33;100.00;98659.88;5287296;27;20020;-74
2024/02/11 03:31:20;;;;;;;21.08;8.52;;;;;;;10.16;100.00;98667.59;5281036;28;20050;-74
2024/02/11 03:33:50;;;;;;;23.88;8.32;;;;;;;10.15;100.00;98667.81;5285080;27;20410;-74
2024/02/11 03:36:21;;;;;;;19.27;7.88;;;;;;;10.08;100.00;98674.03;5281047;28;20076;-74
2024/02/11 03:38:51;;;;;;;13.93;7.13;;;;;;;10.21;100.00;98675.00;5273295;27;20481;-74
2024/02/11 03:41:22;;;;;;;18.45;7.60;;;;;;;10.19;100.00;98682.41;5276861;28;20063;-74
2024/02/11 03:43:53;;;;;;;13.95;6.63;;;;;;;10.17;100.00;98684.50;5276658;28;20020;-74
2024/02/11 03:46:23;;;;;;;18.92;8.10;;;;;;;10.09;100.00;98681.06;5276596;27;20058;-74
2024/02/11 03:48:58;;;;;;;16.65;8.35;;;;;;;10.07;100.00;98682.28;5285573;28;20102;-74
2024/02/11 03:51:29;;;;;;;19.95;8.60;;;;;;;10.09;100.00;98688.22;5284808;27;20090;-74
2024/02/11 03:54:01;;;;;;;17.00;8.23;;;;;;;10.05;100.00;98690.53;5279408;28;21476;-74
2024/02/11 03:56:35;;;;;;;18.05;8.25;;;;;;;10.04;100.00;98691.59;5282918;28;20035;-74
2024/02/11 03:59:08;;;;;;;18.98;8.77;;;;;;;9.99;100.00;98701.28;5280519;28;20106;-74
2024/02/11 04:01:38;;;;;;;15.13;7.22;;;;;;;9.99;100.00;98695.91;5280526;27;20029;-74
2024/02/11 04:04:09;;;;;;;16.63;7.60;;;;;;;9.95;100.00;98706.25;5285174;28;20020;-74
2024/02/11 04:06:41;;;;;;;20.25;7.30;;;;;;;9.88;100.00;98704.63;5276642;27;20113;-74
2024/02/11 04:09:13;;;;;;;17.60;7.38;;;;;;;9.94;100.00;98712.66;5284724;27;20027;-74
2024/02/11 04:11:44;;;;;;;15.63;6.43;;;;;;;9.95;100.00;98716.97;5275285;27;20396;-74
2024/02/11 04:14:15;;;;;;;21.02;7.05;;;;;;;9.85;100.00;98719.28;5282006;28;20019;-74
2024/02/11 04:16:46;;;;;;;17.25;5.60;;;;;;;9.84;100.00;98726.50;5283139;28;20023;-74
2024/02/11 04:19:16;;;;;;;18.65;4.97;;;;;;;9.79;100.00;98725.50;5278784;27;20019;-74
2024/02/11 04:21:48;;;;;;;14.25;5.15;;;;;;;9.87;100.00;98725.25;5279736;28;20114;-74
2024/02/11 04:24:21;;;;;;;14.95;4.15;;;;;;;9.82;100.00;98725.88;5285145;27;20473;-74
2024/02/11 04:26:53;;;;;;;18.42;4.78;;;;;;;9.76;100.00;98733.97;5279681;28;20052;-74
2024/02/11 04:29:24;;;;;;;15.98;3.90;;;;;;;9.83;100.00;98726.69;5280148;28;20507;-74
2024/02/11 04:31:54;;;;;;;13.50;4.45;;;;;;;9.69;100.00;98725.09;5276673;28;20020;-74
2024/02/11 04:34:25;;;;;;;16.17;4.55;;;;;;;9.63;100.00;98734.81;5277875;27;20548;-74
2024/02/11 04:36:56;;;;;;;21.42;4.47;;;;;;;9.75;100.00;98726.97;5282632;27;20524;-74
2024/02/11 04:39:27;;;;;;;15.13;4.03;;;;;;;9.69;100.00;98728.63;5280548;27;20107;-74
2024/02/11 04:41:57;;;;;;;14.63;3.97;;;;;;;9.58;100.00;98738.13;5283451;28;20485;-74
2024/02/11 04:44:31;;;;;;;10.75;3.83;;;;;;;9.54;100.00;98725.41;5278540;28;20024;-74
2024/02/11 04:47:01;;;;;;;20.77;4.18;;;;;;;9.70;100.00;98721.41;5282886;28;20019;-74
2024/02/11 04:49:32;;;;;;;18.90;3.78;;;;;;;9.72;100.00;98724.69;5280412;28;20080;-74
2024/02/11 04:52:07;;;;;;;23.27;4.57;;;;;;;9.73;100.00;98715.63;5281456;28;20080;-74
2024/02/11 04:54:38;;;;;;;25.40;6.28;;;;;;;9.63;100.00;98718.75;5280774;28;20019;-74
2024/02/11 04:57:10;;;;;;;19.48;4.25;;;;;;;9.57;100.00;98720.41;5281689;28;20068;-74
2024/02/11 04:59:42;;;;;;;20.42;4.10;;;;;;;9.64;100.00;98722.25;5283523;28;20024;-74
2024/02/11 05:02:13;;;;;;;16.35;3.95;;;;;;;9.58;100.00;98722.06;5280305;28;20591;-74
2024/02/11 05:04:43;;;;;;;24.00;3.95;;;;;;;9.62;100.00;98722.47;5284035;28;20107;-74
2024/02/11 05:07:14;;;;;;;15.25;3.72;;;;;;;9.64;100.00;98725.78;5279299;27;20035;-74
2024/02/11 05:09:45;;;;;;;19.83;4.05;;;;;;;9.62;100.00;98740.38;5283265;28;20027;-75
2024/02/11 05:12:17;;;;;;;18.40;4.50;;;;;;;9.63;100.00;98747.38;5277731;28;20404;-74
2024/02/11 05:14:49;;;;;;;20.52;4.47;;;;;;;9.58;100.00;98758.72;5282585;27;20077;-74
2024/02/11 05:17:19;;;;;;;16.73;4.70;;;;;;;9.49;100.00;98760.00;5284776;28;20027;-74
2024/02/11 05:19:50;;;;;;;17.63;3.80;;;;;;;9.43;100.00;98771.53;5279086;28;20049;-74
2024/02/11 05:22:22;;;;;;;13.73;3.33;;;;;;;9.41;100.00;98771.75;5283298;28;20073;-74
2024/02/11 05:24:54;;;;;;;21.92;4.97;;;;;;;9.42;100.00;98776.06;5275651;28;20055;-74
2024/02/11 05:27:24;;;;;;;18.45;3.47;;;;;;;9.48;100.00;98771.72;5280791;28;20095;-74
2024/02/11 05:29:56;;;;;;;17.42;3.42;;;;;;;9.37;100.00;98778.53;5282752;28;20030;-74
2024/02/11 05:32:27;;;;;;;17.88;3.70;;;;;;;9.42;100.00;98775.25;5279781;28;20032;-74
2024/02/11 05:34:58;;;;;;;17.75;4.60;;;;;;;9.45;100.00;98770.28;5281663;28;20537;-74
2024/02/11 05:37:29;;;;;;;21.42;4.47;;;;;;;9.39;100.00;98779.16;5279094;28;20032;-74
2024/02/11 05:40:00;;;;;;;17.65;4.57;;;;;;;9.46;100.00;98779.16;5281248;28;20042;-74
2024/02/11 05:42:30;;;;;;;21.60;5.30;;;;;;;9.37;100.00;98773.19;5282822;28;20016;-74
2024/02/11 05:45:01;;;;;;;27.38;6.47;;;;;;;9.44;100.00;98776.69;5279864;28;20062;-74
2024/02/11 05:47:32;;;;;;;25.80;6.82;;;;;;;9.45;100.00;98789.03;5277646;28;20028;-74
2024/02/11 05:50:06;;;;;;;19.15;4.75;;;;;;;9.43;100.00;98785.72;5283353;28;20465;-74
2024/02/11 05:52:36;;;;;;;44.50;6.55;;;;;;;9.31;100.00;98790.09;5278638;28;20020;-74
2024/02/11 05:55:09;;;;;;;29.98;7.10;;;;;;;9.39;100.00;98789.88;5285595;28;20495;-74
2024/02/11 05:57:41;;;;;;;26.45;8.00;;;;;;;9.36;100.00;98789.47;5277662;28;20050;-74
2024/02/11 06:00:13;;;;;;;34.60;9.18;;;;;;;9.42;100.00;98804.69;5287842;28;20110;-74
2024/02/11 06:02:46;;;;;;;22.20;6.70;;;;;;;9.45;100.00;98794.38;5284913;28;20753;-74
2024/02/11 06:05:17;;;;;;;26.88;7.38;;;;;;;9.44;100.00;98794.56;5281486;28;20038;-74
2024/02/11 06:07:50;;;;;;;26.25;7.35;;;;;;;9.44;100.00;98797.25;5284477;28;20461;-74
2024/02/11 06:10:23;;;;;;;30.95;8.02;;;;;;;9.44;100.00;98800.78;5283964;28;20046;-74
2024/02/11 06:12:54;;;;;;;30.67;8.85;;;;;;;9.44;100.00;98805.28;5290937;27;20015;-74
2024/02/11 06:15:27;;;;;;;27.75;8.52;;;;;;;9.47;100.00;98807.56;5286841;27;20106;-74
2024/02/11 06:17:57;;;;;;;31.13;8.10;;;;;;;9.47;100.00;98805.69;5284566;27;20027;-74
2024/02/11 06:20:29;;;;;;;21.40;7.50;;;;;;;9.50;100.00;98809.81;5282219;27;20028;-74
2024/02/11 06:23:00;;;;;;;31.55;9.20;;;;;;;9.52;100.00;98808.56;5288238;27;20035;-74
2024/02/11 06:25:30;;;;;;;29.27;9.45;;;;;;;9.59;100.00;98813.94;5281059;27;20029;-74
2024/02/11 06:28:01;;;;;;;29.27;9.13;;;;;;;9.58;100.00;98817.63;5285798;27;20081;-74
2024/02/11 06:30:32;;;;;;;28.30;9.63;;;;;;;9.56;100.00;98819.69;5287257;27;20392;-74
2024/02/11 06:33:02;;;;;;;30.88;9.93;;;;;;;9.55;100.00;98823.41;5284642;27;20019;-74
2024/02/11 06:35:33;;;;;;;29.85;10.18;;;;;;;9.48;100.00;98828.75;5288695;27;20028;-74
2024/02/11 06:38:04;;;;;;;35.03;10.75;;;;;;;9.52;100.00;98829.97;5288103;27;20027;-74
2024/02/11 06:40:35;;;;;;;33.13;11.50;;;;;;;9.49;100.00;98830.41;5283280;27;20703;-74
2024/02/11 06:43:11;;;;;;;34.15;11.25;;;;;;;9.53;100.00;98836.97;5283875;28;20028;-74
2024/02/11 06:45:45;;;;;;;34.90;11.20;;;;;;;9.55;100.00;98837.59;5284373;27;20096;-74
2024/02/11 06:48:17;;;;;;;36.13;11.13;;;;;;;9.62;100.00;98836.75;5287027;27;20051;-74
2024/02/11 06:50:48;;;;;;;38.13;12.32;;;;;;;9.58;100.00;98841.69;5287158;27;20069;-74
2024/02/11 06:53:18;;;;;;;34.15;13.13;;;;;;;9.60;100.00;98848.50;5284306;27;20039;-74
2024/02/11 06:55:49;;;;;;;31.00;12.55;;;;;;;9.48;100.00;98844.00;5280288;27;20525;-74
2024/02/11 06:58:19;;;;;;;37.35;12.43;;;;;;;9.58;100.00;98853.22;5284347;27;20035;-74
2024/02/11 07:00:50;;;;;;;35.08;12.20;;;;;;;9.50;100.00;98855.31;5284697;27;20388;-74
2024/02/11 07:03:23;;;;;;;41.53;12.57;;;;;;;9.53;100.00;98855.72;5287171;27;20032;-74
2024/02/11 07:05:53;;;;;;;44.50;14.63;;;;;;;9.49;100.00;98857.19;5276853;27;20030;-74
2024/02/11 07:08:24;;;;;;;43.58;12.60;;;;;;;9.59;100.00;98862.94;5282977;27;20051;-74
2024/02/11 07:10:54;;;;;;;40.05;11.82;;;;;;;9.68;100.00;98854.66;5284379;27;20400;-74
2024/02/11 07:13:25;;;;;;;41.25;14.07;;;;;;;9.68;100.00;98860.84;5285637;27;20105;-74
2024/02/11 07:15:56;;;;;;;37.03;11.82;;;;;;;9.64;100.00;98864.13;5288372;27;20020;-74
2024/02/11 07:18:26;;;;;;;43.40;10.85;;;;;;;9.61;100.00;98868.06;5282591;27;20102;-74
2024/02/11 07:20:57;;;;;;;35.47;11.32;;;;;;;9.69;100.00;98870.53;5287677;27;20072;-74
2024/02/11 07:23:27;;;;;;;47.38;12.38;;;;;;;9.67;100.00;98872.59;5277644;28;20078;-74
2024/02/11 07:25:58;;;;;;;38.72;10.35;;;;;;;9.64;100.00;98875.69;5289019;27;20079;-74
2024/02/11 07:28:28;;;;;;;38.35;10.30;;;;;;;9.71;100.00;98878.34;5276278;27;20752;-74
2024/02/11 07:30:59;;;;;;;37.65;11.38;;;;;;;9.72;100.00;98882.69;5278489;27;20413;-74
2024/02/11 07:33:30;;;;;;;47.78;11.48;;;;;;;9.73;100.00;98884.31;5278418;27;20024;-74
2024/02/11 07:36:00;;;;;;;39.03;12.13;;;;;;;9.78;100.00;98889.88;5279788;27;20027;-74
2024/02/11 07:38:31;;;;;;;30.90;10.38;;;;;;;9.85;100.00;98896.88;5282603;28;20049;-74
2024/02/11 07:41:01;;;;;;;48.28;12.68;;;;;;;9.92;100.00;98896.03;5279891;28;20049;-74
2024/02/11 07:43:32;;;;;;;35.92;11.52;;;;;;;9.78;100.00;98896.03;5286012;27;20023;-74
2024/02/11 07:46:03;;;;;;;44.55;10.35;;;;;;;9.86;100.00;98897.69;5282434;27;20517;-74
2024/02/11 07:48:33;;;;;;;41.47;10.18;;;;;;;9.93;100.00;98903.84;5283785;27;20027;-74
2024/02/11 07:51:06;;;;;;;38.72;10.80;;;;;;;9.96;100.00;98914.16;5286905;27;20027;-74
2024/02/11 07:53:36;;;;;;;34.95;10.95;;;;;;;10.02;100.00;98913.31;5280579;27;20026;-74
2024/02/11 07:56:14;;;;;;;31.45;10.25;;;;;;;9.94;100.00;98918.91;5283900;28;20023;-74
2024/02/11 07:58:44;;;;;;;45.22;12.88;;;;;;;9.90;100.00;98917.69;5281920;27;20492;-74
2024/02/11 08:01:15;;;;;;;36.28;10.77;;;;;;;9.97;100.00;98920.34;5286679;27;20027;-76
2024/02/11 08:03:47;;;;;;;32.55;10.55;;;;;;;9.96;100.00;98911.47;5268939;28;20032;-74
2024/02/11 08:06:18;;;;;;;34.70;10.90;;;;;;;9.98;100.00;98922.78;5281825;27;20027;-74
2024/02/11 08:08:48;;;;;;;35.20;11.05;;;;;;;10.07;100.00;98926.91;5281662;28;20024;-74
2024/02/11 08:11:18;;;;;;;35.30;11.57;;;;;;;10.09;100.00;98918.66;5275467;27;20030;-74
2024/02/11 08:13:54;;;;;;;44.20;11.65;;;;;;;10.08;100.00;98925.88;5281448;27;22459;-74
2024/02/11 08:16:25;;;;;;;40.45;11.57;;;;;;;10.04;100.00;98932.69;5279574;28;20035;-74
2024/02/11 08:18:56;;;;;;;26.55;10.13;;;;;;;9.93;100.00;98924.47;5279023;27;20051;-74
2024/02/11 08:21:26;;;;;;;36.30;11.45;;;;;;;9.98;100.00;98930.84;5281962;27;20071;-74
2024/02/11 08:23:57;;;;;;;37.85;10.52;;;;;;;10.07;100.00;98936.78;5280612;28;20090;-74
2024/02/11 08:26:28;;;;;;;37.33;11.00;;;;;;;10.03;100.00;98933.72;5280837;28;20036;-74
2024/02/11 08:29:01;;;;;;;41.38;12.70;;;;;;;10.19;100.00;98936.97;5283875;28;20061;-74
2024/02/11 08:31:31;;;;;;;33.25;9.98;;;;;;;10.11;100.00;98935.34;5278190;28;20109;-74
2024/02/11 08:34:02;;;;;;;40.38;10.45;;;;;;;10.17;100.00;98942.53;5286703;27;20051;-74
2024/02/11 08:36:32;;;;;;;38.05;9.82;;;;;;;10.27;100.00;98945.66;5276601;28;20693;-74
2024/02/11 08:39:03;;;;;;;36.47;10.18;;;;;;;10.28;100.00;98949.97;5279493;27;20484;-74
2024/02/11 08:41:33;;;;;;;35.70;10.10;;;;;;;10.21;100.00;98957.19;5280327;28;20476;-74
2024/02/11 08:44:05;;;;;;;33.03;9.65;;;;;;;10.35;100.00;98958.00;5284100;27;20724;-74
2024/02/11 08:46:36;;;;;;;32.33;10.55;;;;;;;10.53;100.00;98960.81;5281604;28;20023;-74
2024/02/11 08:49:07;;;;;;;33.55;9.32;;;;;;;10.65;100.00;98968.22;5278389;28;20020;-74
2024/02/11 08:51:38;;;;;;;35.65;9.25;;;;;;;10.53;100.00;98971.53;5280064;28;20160;-74
2024/02/11 08:54:08;;;;;;;24.80;8.70;;;;;;;10.59;100.00;98967.19;5280568;28;20376;-74
2024/02/11 08:56:40;;;;;;;35.10;7.93;;;;;;;10.65;100.00;98973.59;5281494;28;20023;-74
2024/02/11 08:59:13;;;;;;;31.45;8.43;;;;;;;10.72;100.00;98977.06;5277971;28;20030;-74
2024/02/11 09:01:51;;;;;;;32.85;10.15;;;;;;;10.65;100.00;98977.09;5280159;27;20043;-74
2024/02/11 09:04:23;;;;;;;28.58;8.68;;;;;;;10.56;100.00;98973.00;5282632;28;20038;-74
2024/02/11 09:06:55;;;;;;;37.95;8.05;;;;;;;10.68;100.00;98970.47;5282112;28;20027;-74
2024/02/11 09:09:26;;;;;;;37.03;8.63;;;;;;;10.65;100.00;98968.22;5282292;28;20508;-74
2024/02/11 09:11:57;;;;;;;21.73;7.47;;;;;;;10.72;100.00;98969.81;5278744;28;20567;-74
2024/02/11 09:14:29;;;;;;;28.92;7.25;;;;;;;10.80;100.00;98974.13;5282636;28;20420;-74
2024/02/11 09:17:00;;;;;;;28.35;7.97;;;;;;;10.67;100.00;98979.53;5282508;28;20097;-74
2024/02/11 09:19:31;;;;;;;23.05;6.93;;;;;;;10.69;100.00;98980.97;5278636;28;20045;-74
2024/02/11 09:22:05;;;;;;;34.92;7.88;;;;;;;10.57;100.00;98986.16;5283259;28;20456;-74
2024/02/11 09:24:38;;;;;;;22.53;7.40;;;;;;;10.60;100.00;98984.94;5278879;27;20235;-74
2024/02/11 09:27:10;;;;;;;21.55;7.35;;;;;;;10.65;100.00;98987.00;5281708;27;20643;-74
2024/02/11 09:29:41;;;;;;;23.77;7.55;;;;;;;10.72;100.00;98998.50;5276998;28;20032;-74
2024/02/11 09:32:13;;;;;;;22.17;7.15;;;;;;;10.83;100.00;98993.28;5273898;28;20027;-74
2024/02/11 09:34:43;;;;;;;21.27;7.40;;;;;;;10.92;100.00;99009.16;5282126;28;20035;-74
2024/02/11 09:37:14;;;;;;;33.58;7.68;;;;;;;10.89;100.00;99005.88;5279601;28;20027;-74
2024/02/11 09:39:44;;;;;;;31.25;7.35;;;;;;;10.99;100.00;99005.38;5280833;28;20396;-74
2024/02/11 09:42:20;;;;;;;33.33;8.02;;;;;;;10.94;100.00;99010.56;5284193;28;20027;-74
2024/02/11 09:44:53;;;;;;;26.77;7.18;;;;;;;10.94;100.00;99012.44;5280890;28;20027;-74
2024/02/11 09:47:25;;;;;;;32.58;6.75;;;;;;;10.99;100.00;99012.63;5285213;27;20075;-74
2024/02/11 09:50:00;;;;;;;32.85;6.32;;;;;;;11.00;100.00;99012.44;5288047;28;20481;-74
2024/02/11 09:52:31;;;;;;;23.52;6.18;;;;;;;11.01;100.00;99008.72;5282785;28;20039;-74
2024/02/11 09:55:02;;;;;;;23.70;6.85;;;;;;;11.11;100.00;99014.44;5286913;27;20020;-74
2024/02/11 09:57:33;;;;;;;22.17;6.45;;;;;;;11.07;100.00;99023.94;5283564;27;20055;-74
2024/02/11 10:00:07;;;;;;;27.42;6.28;;;;;;;11.12;100.00;99024.13;5287038;27;20012;-74
2024/02/11 10:02:38;;;;;;;25.65;6.22;;;;;;;11.17;100.00;99014.63;5276875;27;20436;-74
2024/02/11 10:05:11;;;;;;;22.58;6.03;;;;;;;11.36;100.00;99021.72;5285157;27;20028;-74
2024/02/11 10:07:44;;;;;;;22.63;6.13;;;;;;;11.41;100.00;99025.41;5283870;27;20101;-74
2024/02/11 10:10:15;;;;;;;33.47;6.60;;;;;;;11.44;100.00;99029.50;5283078;27;20035;-74
2024/02/11 10:12:48;;;;;;;22.80;5.65;;;;;;;11.41;100.00;99029.97;5288805;27;20075;-74
2024/02/11 10:15:20;;;;;;;30.02;6.82;;;;;;;11.46;100.00;99027.47;5280887;27;20073;-74
2024/02/11 10:17:51;;;;;;;20.08;5.95;;;;;;;11.65;100.00;99031.06;5286140;27;20381;-74
2024/02/11 10:20:22;;;;;;;20.50;6.47;;;;;;;11.79;100.00;99042.50;5282585;27;20027;-74
2024/02/11 10:22:53;;;;;;;24.88;5.90;;;;;;;11.83;100.00;99041.88;5285094;27;20023;-74
2024/02/11 10:25:23;;;;;;;20.13;5.03;;;;;;;11.60;100.00;99039.75;5282932;27;20653;-74
2024/02/11 10:27:55;;;;;;;20.02;7.32;;;;;;;11.47;100.00;99041.69;5285183;27;20172;-74
2024/02/11 10:30:26;;;;;;;25.83;6.78;;;;;;;11.33;100.00;99043.63;5287115;27;20107;-74
2024/02/11 10:32:58;;;;;;;24.35;5.88;;;;;;;11.19;100.00;99050.91;5282456;28;20361;-73
2024/02/11 10:35:30;;;;;;;29.48;7.05;;;;;;;11.26;100.00;99051.72;5288996;28;20385;-74
2024/02/11 10:38:05;;;;;;;19.55;5.20;;;;;;;11.22;100.00;99049.69;5283771;27;20091;-74
2024/02/11 10:40:36;;;;;;;16.17;5.28;;;;;;;11.03;100.00;99046.03;5287177;27;20031;-74
2024/02/11 10:43:09;;;;;;;29.67;6.07;;;;;;;11.07;100.00;99052.63;5282435;27;20020;-76
2024/02/11 10:45:39;;;;;;;26.98;5.68;;;;;;;11.08;100.00;99047.06;5283058;27;20031;-76
2024/02/11 10:48:10;;;;;;;20.33;4.95;;;;;;;11.13;100.00;99046.41;5285159;27;20026;-78
2024/02/11 10:50:40;;;;;;;22.48;5.05;;;;;;;11.30;100.00;99057.50;5280394;27;20024;-80
2024/02/11 10:53:13;;;;;;;17.60;5.97;;;;;;;11.44;100.00;99042.94;5283189;28;20488;-76
2024/02/11 10:55:45;;;;;;;23.08;4.88;;;;;;;11.56;100.00;99043.91;5281175;28;20044;-76
2024/02/11 10:58:21;;;;;;;21.98;4.10;;;;;;;11.57;100.00;99052.78;5281338;28;20019;-76
2024/02/11 11:00:52;;;;;;;21.95;4.30;;;;;;;11.57;100.00;99050.09;5282945;27;20110;-76
2024/02/11 11:03:28;;;;;;;20.48;4.25;;;;;;;11.73;100.00;99056.81;5286218;27;20088;-76
2024/02/11 11:05:59;;;;;;;11.88;4.05;;;;;;;11.79;100.00;99054.06;5280879;28;20023;-76
2024/02/11 11:08:30;;;;;;;18.05;4.15;;;;;;;11.84;100.00;99054.28;5273507;27;20178;-76
2024/02/11 11:11:01;;;;;;;10.77;3.65;;;;;;;11.94;100.00;99045.72;5279669;28;20130;-76
2024/02/11 11:13:31;;;;;;;10.88;3.22;;;;;;;12.28;100.00;99057.03;5282501;27;20384;-76
2024/02/11 11:16:04;;;;;;;13.73;3.88;;;;;;;12.46;100.00;99051.69;5273566;28;20035;-76
2024/02/11 11:18:36;;;;;;;12.15;3.83;;;;;;;12.37;100.00;99058.41;5278756;27;20107;-76
2024/02/11 11:21:08;;;;;;;18.00;3.17;;;;;;;12.21;100.00;99056.28;5282680;27;20026;-76
2024/02/11 11:23:41;;;;;;;9.77;3.28;;;;;;;12.06;100.00;99052.06;5285128;28;20031;-76
2024/02/11 11:26:11;;;;;;;16.55;3.25;;;;;;;12.07;100.00;99056.38;5286555;27;20031;-76
2024/02/11 11:28:42;;;;;;;15.20;4.25;;;;;;;12.11;100.00;99054.09;5283003;28;20034;-76
2024/02/11 11:31:13;;;;;;;23.02;4.30;;;;;;;11.99;100.00;99053.97;5286684;27;20103;-75
2024/02/11 11:33:44;;;;;;;12.00;3.50;;;;;;;11.88;100.00;99057.38;5288639;27;20370;-76
2024/02/11 11:36:23;;;;;;;11.18;3.50;;;;;;;12.08;100.00;99049.97;5289105;27;20051;-75